| Time | Avg. Air Temp | Dew Point | Avg. Rel Humidity | Avg. 2 Min Wind Speed | Max Gust Velocity | MGV Time | MGV Direction | Avg. Spot Wind Velocity |
|---|---|---|---|---|---|---|---|---|
| 2026-09-05 06:00:00 | 2° C | -0° C | 86% | 9 km/h | 14 km/h | 05:59:00 | E | 6 km/h |
| 05:00:00 | 1° C | -0° C | 91% | 21 km/h | 24 km/h | 04:56:00 | E | 21 km/h |
| 04:00:00 | 2° C | -1° C | 84% | 12 km/h | 13 km/h | 04:00:00 | E | 12 km/h |
| 03:00:00 | 2° C | -1° C | 82% | 11 km/h | 15 km/h | 03:00:00 | SE | 10 km/h |
| 02:00:00 | 2° C | -1° C | 84% | 12 km/h | 14 km/h | 01:57:00 | E | 12 km/h |
| 01:00:00 | 1° C | -0° C | 89% | 17 km/h | 19 km/h | 00:57:00 | E | 17 km/h |
| 00:00:00 | 1° C | 0° C | 93% | 12 km/h | 16 km/h | 00:00:00 | E | 11 km/h |
| 23:00:00 | 1° C | 1° C | 100% | 13 km/h | 20 km/h | 22:57:00 | SE | 14 km/h |
| 22:00:00 | 1° C | 0° C | 100% | 9 km/h | 19 km/h | 21:56:00 | E | 12 km/h |
| 21:00:00 | 0° C | 0° C | 100% | 19 km/h | 22 km/h | 21:00:00 | SE | 17 km/h |
| 20:00:00 | 1° C | 1° C | 100% | 9 km/h | 14 km/h | 19:58:00 | SE | 9 km/h |
| 19:00:00 | 0° C | 0° C | 100% | 15 km/h | 17 km/h | 18:59:00 | SE | 13 km/h |
| 18:00:00 | 0° C | 0° C | 100% | 14 km/h | 17 km/h | 17:59:00 | SE | 12 km/h |
| 17:00:00 | 0° C | 0° C | 100% | 13 km/h | 15 km/h | 16:59:00 | SE | 11 km/h |
| 16:00:00 | 1° C | 1° C | 100% | 12 km/h | 14 km/h | 15:58:00 | SE | 10 km/h |
| 15:00:00 | 1° C | 1° C | 100% | 8 km/h | 15 km/h | 14:56:00 | SE | 9 km/h |
| 14:00:00 | 1° C | 1° C | 100% | 5 km/h | 13 km/h | 13:57:00 | S | 8 km/h |
| 13:00:00 | 1° C | 1° C | 100% | 6 km/h | 9 km/h | 12:59:00 | SE | 6 km/h |
| 12:00:00 | 1° C | 1° C | 100% | 8 km/h | 12 km/h | 11:57:00 | E | 9 km/h |
| 11:00:00 | 2° C | 2° C | 100% | 2 km/h | 5 km/h | 10:59:00 | SW | 3 km/h |
| 10:00:00 | 1° C | 1° C | 99% | 19 km/h | 21 km/h | 09:56:00 | NE | 20 km/h |
| 09:00:00 | 1° C | 1° C | 100% | 21 km/h | 25 km/h | 09:00:00 | NE | 20 km/h |
| 08:00:00 | 1° C | 1° C | 100% | 16 km/h | 20 km/h | 07:59:00 | NE | 16 km/h |
| 07:00:00 | 1° C | 0° C | 97% | 20 km/h | 23 km/h | 07:00:00 | NE | 18 km/h |
Subpeak Weather
| Time | Avg. Air Temp | Dew Point | Avg. Rel Humidity | Avg. 2 Min Wind Speed | Max Gust Velocity | MGV Time | MGV Direction | Avg. Spot Wind Velocity |
|---|---|---|---|---|---|---|---|---|
| 2026-09-05 06:00:00 | 2° C | -0° C | 86% | 9 km/h | 14 km/h | 05:59:00 | E | 6 km/h |
| 05:55:00 | 2° C | -1° C | 86% | 11 km/h | 14 km/h | 05:54:00 | E | 10 km/h |
| 05:50:00 | 2° C | -0° C | 86% | 9 km/h | 13 km/h | 05:49:00 | NE | 9 km/h |
| 05:45:00 | 2° C | -0° C | 85% | 12 km/h | 20 km/h | 05:43:00 | SE | 13 km/h |
| 05:40:00 | 2° C | -0° C | 84% | 14 km/h | 18 km/h | 05:39:00 | E | 13 km/h |
| 05:35:00 | 2° C | -1° C | 85% | 16 km/h | 23 km/h | 05:32:00 | E | 17 km/h |
| 05:30:00 | 2° C | -0° C | 84% | 16 km/h | 19 km/h | 05:29:00 | E | 16 km/h |
| 05:25:00 | 2° C | -1° C | 84% | 17 km/h | 21 km/h | 05:22:00 | E | 17 km/h |
| 05:20:00 | 2° C | -1° C | 84% | 16 km/h | 19 km/h | 05:19:00 | E | 15 km/h |
| 05:15:00 | 2° C | -1° C | 85% | 18 km/h | 20 km/h | 05:15:00 | E | 17 km/h |
| 05:10:00 | 1° C | -1° C | 87% | 18 km/h | 21 km/h | 05:06:00 | E | 18 km/h |
| 05:05:00 | 2° C | -0° C | 87% | 18 km/h | 21 km/h | 05:01:00 | NE | 19 km/h |
| 05:00:00 | 1° C | -0° C | 91% | 21 km/h | 24 km/h | 04:56:00 | E | 21 km/h |




